sensor_id;sensor_type;location;lat;lon;timestamp;pressure;altitude;pressure_sealevel;temperature;humidity
46614;BME280;32338;50.430;6.806;2024-01-15T00:00:03;65085.03;;;-3.09;100.00
46614;BME280;32338;50.430;6.806;2024-01-15T00:02:30;65085.59;;;-3.08;100.00
46614;BME280;32338;50.430;6.806;2024-01-15T00:04:56;65088.69;;;-3.08;100.00
46614;BME280;32338;50.430;6.806;2024-01-15T00:07:23;65093.50;;;-3.06;100.00
46614;BME280;32338;50.430;6.806;2024-01-15T00:09:49;65092.38;;;-3.07;100.00
46614;BME280;32338;50.430;6.806;2024-01-15T00:12:16;65087.94;;;-3.11;100.00
46614;BME280;32338;50.430;6.806;2024-01-15T00:14:44;65091.50;;;-3.05;100.00
46614;BME280;32338;50.430;6.806;2024-01-15T00:17:10;65088.38;;;-3.06;100.00
46614;BME280;32338;50.430;6.806;2024-01-15T00:19:38;65090.94;;;-3.06;100.00
46614;BME280;32338;50.430;6.806;2024-01-15T00:22:04;65086.72;;;-3.07;100.00
46614;BME280;32338;50.430;6.806;2024-01-15T00:24:31;65083.72;;;-3.13;100.00
46614;BME280;32338;50.430;6.806;2024-01-15T00:26:57;65080.03;;;-3.14;100.00
46614;BME280;32338;50.430;6.806;2024-01-15T00:29:24;65076.13;;;-3.17;100.00
46614;BME280;32338;50.430;6.806;2024-01-15T00:31:52;65080.34;;;-3.16;100.00
46614;BME280;32338;50.430;6.806;2024-01-15T00:34:19;65086.28;;;-3.13;100.00
46614;BME280;32338;50.430;6.806;2024-01-15T00:36:45;65087.03;;;-3.10;100.00
46614;BME280;32338;50.430;6.806;2024-01-15T00:39:12;65082.59;;;-3.14;100.00
46614;BME280;32338;50.430;6.806;2024-01-15T00:41:38;65080.03;;;-3.14;100.00
46614;BME280;32338;50.430;6.806;2024-01-15T00:44:05;65083.94;;;-3.10;100.00
46614;BME280;32338;50.430;6.806;2024-01-15T00:46:32;65081.69;;;-3.12;100.00
46614;BME280;32338;50.430;6.806;2024-01-15T00:49:00;65072.03;;;-3.23;100.00
46614;BME280;32338;50.430;6.806;2024-01-15T00:51:26;65074.59;;;-3.23;100.00
46614;BME280;32338;50.430;6.806;2024-01-15T00:53:53;65077.38;;;-3.21;100.00
46614;BME280;32338;50.430;6.806;2024-01-15T00:56:20;65069.25;;;-3.26;100.00
46614;BME280;32338;50.430;6.806;2024-01-15T00:58:46;65081.81;;;-3.17;100.00
46614;BME280;32338;50.430;6.806;2024-01-15T01:01:13;65086.13;;;-3.08;100.00
46614;BME280;32338;50.430;6.806;2024-01-15T01:03:39;65087.81;;;-3.06;100.00
46614;BME280;32338;50.430;6.806;2024-01-15T01:06:07;65087.16;;;-3.14;100.00
46614;BME280;32338;50.430;6.806;2024-01-15T01:08:34;65083.13;;;-3.13;100.00
46614;BME280;32338;50.430;6.806;2024-01-15T01:11:00;65092.38;;;-3.07;100.00
46614;BME280;32338;50.430;6.806;2024-01-15T01:13:26;65093.16;;;-3.04;100.00
46614;BME280;32338;50.430;6.806;2024-01-15T01:15:52;65083.94;;;-3.10;100.00
46614;BME280;32338;50.430;6.806;2024-01-15T01:18:19;65080.03;;;-3.14;100.00
46614;BME280;32338;50.430;6.806;2024-01-15T01:20:45;65074.81;;;-3.21;100.00
46614;BME280;32338;50.430;6.806;2024-01-15T01:23:13;65065.56;;;-3.27;100.00
46614;BME280;32338;50.430;6.806;2024-01-15T01:25:40;65071.00;;;-3.17;100.00
46614;BME280;32338;50.430;6.806;2024-01-15T01:28:07;65078.91;;;-3.15;100.00
46614;BME280;32338;50.430;6.806;2024-01-15T01:30:34;65082.25;;;-3.12;100.00
46614;BME280;32338;50.430;6.806;2024-01-15T01:33:01;65070.34;;;-3.25;100.00
46614;BME280;32338;50.430;6.806;2024-01-15T01:35:27;65076.81;;;-3.21;100.00
46614;BME280;32338;50.430;6.806;2024-01-15T01:37:54;65072.59;;;-3.23;100.00
46614;BME280;32338;50.430;6.806;2024-01-15T01:40:22;65074.91;;;-3.26;100.00
46614;BME280;32338;50.430;6.806;2024-01-15T01:42:48;65075.69;;;-3.22;100.00
46614;BME280;32338;50.430;6.806;2024-01-15T01:45:15;65075.69;;;-3.22;100.00
46614;BME280;32338;50.430;6.806;2024-01-15T01:47:41;65065.56;;;-3.27;100.00
46614;BME280;32338;50.430;6.806;2024-01-15T01:50:08;65070.56;;;-3.22;100.00
46614;BME280;32338;50.430;6.806;2024-01-15T01:52:35;65073.34;;;-3.20;100.00
46614;BME280;32338;50.430;6.806;2024-01-15T01:55:03;65070.25;;;-3.20;100.00
46614;BME280;32338;50.430;6.806;2024-01-15T01:57:32;65069.13;;;-3.21;100.00
46614;BME280;32338;50.430;6.806;2024-01-15T02:00:01;65074.13;;;-3.17;100.00
46614;BME280;32338;50.430;6.806;2024-01-15T02:02:29;65080.03;;;-3.14;100.00
46614;BME280;32338;50.430;6.806;2024-01-15T02:04:55;65088.69;;;-3.08;100.00
46614;BME280;32338;50.430;6.806;2024-01-15T02:07:22;65085.91;;;-3.11;100.00
46614;BME280;32338;50.430;6.806;2024-01-15T02:09:49;65082.03;;;-3.14;100.00
46614;BME280;32338;50.430;6.806;2024-01-15T02:12:16;65093.81;;;-3.08;100.00
46614;BME280;32338;50.430;6.806;2024-01-15T02:14:44;65089.47;;;-3.05;100.00
46614;BME280;32338;50.430;6.806;2024-01-15T02:17:11;65094.63;;;-3.05;100.00
46614;BME280;32338;50.430;6.806;2024-01-15T02:19:38;65102.97;;;-2.97;100.00
46614;BME280;32338;50.430;6.806;2024-01-15T02:22:06;65091.25;;;-3.08;100.00
46614;BME280;32338;50.430;6.806;2024-01-15T02:24:34;65087.94;;;-3.11;100.00
46614;BME280;32338;50.430;6.806;2024-01-15T02:27:00;65082.81;;;-3.11;100.00
46614;BME280;32338;50.430;6.806;2024-01-15T02:29:27;65097.06;;;-3.00;100.00
46614;BME280;32338;50.430;6.806;2024-01-15T02:31:53;65082.81;;;-3.11;100.00
46614;BME280;32338;50.430;6.806;2024-01-15T02:34:20;65093.16;;;-3.04;100.00
46614;BME280;32338;50.430;6.806;2024-01-15T02:36:47;65093.81;;;-3.08;100.00
46614;BME280;32338;50.430;6.806;2024-01-15T02:39:13;65091.50;;;-3.05;100.00
46614;BME280;32338;50.430;6.806;2024-01-15T02:41:41;65093.16;;;-3.04;100.00
46614;BME280;32338;50.430;6.806;2024-01-15T02:44:08;65086.50;;;-3.10;100.00
46614;BME280;32338;50.430;6.806;2024-01-15T02:46:34;65085.59;;;-3.08;100.00
46614;BME280;32338;50.430;6.806;2024-01-15T02:49:01;65092.06;;;-3.05;100.00
46614;BME280;32338;50.430;6.806;2024-01-15T02:51:27;65095.16;;;-3.04;100.00
46614;BME280;32338;50.430;6.806;2024-01-15T02:53:54;65095.72;;;-3.04;100.00
46614;BME280;32338;50.430;6.806;2024-01-15T02:56:21;65097.59;;;-3.00;100.00
46614;BME280;32338;50.430;6.806;2024-01-15T02:58:49;65088.94;;;-3.05;100.00
46614;BME280;32338;50.430;6.806;2024-01-15T03:01:18;65084.47;;;-3.10;100.00
46614;BME280;32338;50.430;6.806;2024-01-15T03:03:44;65085.91;;;-3.11;100.00
46614;BME280;32338;50.430;6.806;2024-01-15T03:06:11;65079.91;;;-3.09;100.00
46614;BME280;32338;50.430;6.806;2024-01-15T03:08:38;65088.16;;;-3.08;100.00
46614;BME280;32338;50.430;6.806;2024-01-15T03:11:04;65086.81;;;-3.12;100.00
46614;BME280;32338;50.430;6.806;2024-01-15T03:13:31;65094.50;;;-3.00;100.00
46614;BME280;32338;50.430;6.806;2024-01-15T03:15:59;65091.72;;;-3.03;100.00
46614;BME280;32338;50.430;6.806;2024-01-15T03:18:25;65093.28;;;-3.08;100.00
46614;BME280;32338;50.430;6.806;2024-01-15T03:20:52;65095.03;;;-3.00;100.00
46614;BME280;32338;50.430;6.806;2024-01-15T03:23:18;65089.47;;;-3.05;100.00
46614;BME280;32338;50.430;6.806;2024-01-15T03:25:45;65096.84;;;-3.03;100.00
46614;BME280;32338;50.430;6.806;2024-01-15T03:28:11;65095.38;;;-3.02;100.00
46614;BME280;32338;50.430;6.806;2024-01-15T03:30:38;65086.28;;;-3.13;100.00
46614;BME280;32338;50.430;6.806;2024-01-15T03:33:06;65082.03;;;-3.14;100.00
46614;BME280;32338;50.430;6.806;2024-01-15T03:35:32;65082.59;;;-3.14;100.00
46614;BME280;32338;50.430;6.806;2024-01-15T03:37:59;65090.38;;;-3.06;100.00
46614;BME280;32338;50.430;6.806;2024-01-15T03:40:26;65088.69;;;-3.08;100.00
46614;BME280;32338;50.430;6.806;2024-01-15T03:42:53;65087.81;;;-3.06;100.00
46614;BME280;32338;50.430;6.806;2024-01-15T03:45:19;65091.25;;;-3.08;100.00
46614;BME280;32338;50.430;6.806;2024-01-15T03:47:46;65082.47;;;-3.09;100.00
46614;BME280;32338;50.430;6.806;2024-01-15T03:50:14;65088.69;;;-3.08;100.00
46614;BME280;32338;50.430;6.806;2024-01-15T03:52:40;65086.13;;;-3.08;100.00
46614;BME280;32338;50.430;6.806;2024-01-15T03:55:07;65102.41;;;-2.98;100.00
46614;BME280;32338;50.430;6.806;2024-01-15T03:57:34;65099.06;;;-3.01;100.00
46614;BME280;32338;50.430;6.806;2024-01-15T04:00:00;65105.94;;;-2.92;100.00
46614;BME280;32338;50.430;6.806;2024-01-15T04:02:28;65103.84;;;-2.99;100.00
46614;BME280;32338;50.430;6.806;2024-01-15T04:04:55;65093.16;;;-3.04;100.00
46614;BME280;32338;50.430;6.806;2024-01-15T04:07:23;65095.59;;;-2.99;100.00
46614;BME280;32338;50.430;6.806;2024-01-15T04:09:49;65102.06;;;-2.96;100.00
46614;BME280;32338;50.430;6.806;2024-01-15T04:12:16;65099.41;;;-3.03;100.00
46614;BME280;32338;50.430;6.806;2024-01-15T04:14:43;65091.25;;;-3.08;100.00
46614;BME280;32338;50.430;6.806;2024-01-15T04:17:09;65097.72;;;-3.04;100.00
46614;BME280;32338;50.430;6.806;2024-01-15T04:19:36;65080.94;;;-3.15;100.00
46614;BME280;32338;50.430;6.806;2024-01-15T04:22:02;65076.13;;;-3.17;100.00
46614;BME280;32338;50.430;6.806;2024-01-15T04:24:32;65077.78;;;-3.16;100.00
46614;BME280;32338;50.430;6.806;2024-01-15T04:26:59;65076.47;;;-3.19;100.00
46614;BME280;32338;50.430;6.806;2024-01-15T04:29:26;65086.81;;;-3.12;100.00
46614;BME280;32338;50.430;6.806;2024-01-15T04:31:53;65079.81;;;-3.16;100.00
46614;BME280;32338;50.430;6.806;2024-01-15T04:34:19;65078.38;;;-3.15;100.00
46614;BME280;32338;50.430;6.806;2024-01-15T04:36:46;65077.03;;;-3.19;100.00
46614;BME280;32338;50.430;6.806;2024-01-15T04:39:12;65067.78;;;-3.25;100.00
46614;BME280;32338;50.430;6.806;2024-01-15T04:41:40;65085.38;;;-3.11;100.00
46614;BME280;32338;50.430;6.806;2024-01-15T04:44:07;65082.25;;;-3.12;100.00
46614;BME280;32338;50.430;6.806;2024-01-15T04:46:33;65072.91;;;-3.25;100.00
46614;BME280;32338;50.430;6.806;2024-01-15T04:49:00;65069.78;;;-3.26;100.00
46614;BME280;32338;50.430;6.806;2024-01-15T04:51:26;65067.91;;;-3.30;100.00
46614;BME280;32338;50.430;6.806;2024-01-15T04:53:53;65071.25;;;-3.27;100.00
46614;BME280;32338;50.430;6.806;2024-01-15T04:56:19;65079.59;;;-3.19;100.00
46614;BME280;32338;50.430;6.806;2024-01-15T04:58:47;65069.25;;;-3.26;100.00
46614;BME280;32338;50.430;6.806;2024-01-15T05:01:15;65070.34;;;-3.25;100.00
46614;BME280;32338;50.430;6.806;2024-01-15T05:03:42;65071.69;;;-3.21;100.00
46614;BME280;32338;50.430;6.806;2024-01-15T05:06:09;65081.47;;;-3.15;100.00
46614;BME280;32338;50.430;6.806;2024-01-15T05:08:35;65076.13;;;-3.17;100.00
46614;BME280;32338;50.430;6.806;2024-01-15T05:11:02;65076.47;;;-3.19;100.00
46614;BME280;32338;50.430;6.806;2024-01-15T05:13:29;65079.03;;;-3.19;100.00
46614;BME280;32338;50.430;6.806;2024-01-15T05:15:57;65084.25;;;-3.12;100.00
46614;BME280;32338;50.430;6.806;2024-01-15T05:18:23;65080.94;;;-3.15;100.00
46614;BME280;32338;50.430;6.806;2024-01-15T05:20:50;65079.03;;;-3.19;100.00
46614;BME280;32338;50.430;6.806;2024-01-15T05:23:17;65074.25;;;-3.21;100.00
46614;BME280;32338;50.430;6.806;2024-01-15T05:25:44;65075.91;;;-3.20;100.00
46614;BME280;32338;50.430;6.806;2024-01-15T05:28:10;65075.69;;;-3.22;100.00
46614;BME280;32338;50.430;6.806;2024-01-15T05:30:37;65075.69;;;-3.22;100.00
46614;BME280;32338;50.430;6.806;2024-01-15T05:33:05;65077.38;;;-3.21;100.00
46614;BME280;32338;50.430;6.806;2024-01-15T05:35:32;65076.69;;;-3.17;100.00
46614;BME280;32338;50.430;6.806;2024-01-15T05:37:59;65066.34;;;-3.24;100.00
46614;BME280;32338;50.430;6.806;2024-01-15T05:40:25;65065.56;;;-3.27;100.00
46614;BME280;32338;50.430;6.806;2024-01-15T05:42:52;65082.03;;;-3.14;100.00
46614;BME280;32338;50.430;6.806;2024-01-15T05:45:19;65083.94;;;-3.10;100.00
46614;BME280;32338;50.430;6.806;2024-01-15T05:47:45;65067.56;;;-3.28;100.00
46614;BME280;32338;50.430;6.806;2024-01-15T05:50:13;65078.69;;;-3.17;100.00
46614;BME280;32338;50.430;6.806;2024-01-15T05:52:40;65073.91;;;-3.19;100.00
46614;BME280;32338;50.430;6.806;2024-01-15T05:55:07;65079.81;;;-3.16;100.00
46614;BME280;32338;50.430;6.806;2024-01-15T05:57:35;65083.81;;;-3.17;100.00
46614;BME280;32338;50.430;6.806;2024-01-15T06:00:01;65084.59;;;-3.14;100.00
46614;BME280;32338;50.430;6.806;2024-01-15T06:02:28;65085.69;;;-3.13;100.00
46614;BME280;32338;50.430;6.806;2024-01-15T06:04:55;65094.50;;;-3.00;100.00
46614;BME280;32338;50.430;6.806;2024-01-15T06:07:23;65087.25;;;-3.07;100.00
46614;BME280;32338;50.430;6.806;2024-01-15T06:09:49;65090.72;;;-3.08;100.00
46614;BME280;32338;50.430;6.806;2024-01-15T06:12:16;65083.13;;;-3.13;100.00
46614;BME280;32338;50.430;6.806;2024-01-15T06:14:43;65087.38;;;-3.12;100.00
46614;BME280;32338;50.430;6.806;2024-01-15T06:17:09;65089.47;;;-3.05;100.00
46614;BME280;32338;50.430;6.806;2024-01-15T06:19:36;65080.94;;;-3.15;100.00
46614;BME280;32338;50.430;6.806;2024-01-15T06:22:03;65090.16;;;-3.09;100.00
46614;BME280;32338;50.430;6.806;2024-01-15T06:24:31;65075.16;;;-3.23;100.00
46614;BME280;32338;50.430;6.806;2024-01-15T06:26:57;65080.16;;;-3.18;100.00
46614;BME280;32338;50.430;6.806;2024-01-15T06:29:25;65078.38;;;-3.15;100.00
46614;BME280;32338;50.430;6.806;2024-01-15T06:31:52;65080.56;;;-3.13;100.00
46614;BME280;32338;50.430;6.806;2024-01-15T06:34:19;65084.81;;;-3.12;100.00
46614;BME280;32338;50.430;6.806;2024-01-15T06:36:46;65075.00;;;-3.18;100.00
46614;BME280;32338;50.430;6.806;2024-01-15T06:39:12;65083.72;;;-3.13;100.00
46614;BME280;32338;50.430;6.806;2024-01-15T06:41:40;65088.94;;;-3.05;100.00
46614;BME280;32338;50.430;6.806;2024-01-15T06:44:08;65099.50;;;-2.96;100.00
46614;BME280;32338;50.430;6.806;2024-01-15T06:46:35;65097.06;;;-3.00;100.00
46614;BME280;32338;50.430;6.806;2024-01-15T06:49:02;65098.72;;;-2.99;100.00
46614;BME280;32338;50.430;6.806;2024-01-15T06:51:29;65095.94;;;-3.01;100.00
46614;BME280;32338;50.430;6.806;2024-01-15T06:53:55;65085.91;;;-3.11;100.00
46614;BME280;32338;50.430;6.806;2024-01-15T06:56:22;65078.38;;;-3.15;100.00
46614;BME280;32338;50.430;6.806;2024-01-15T06:58:50;65080.34;;;-3.16;100.00
46614;BME280;32338;50.430;6.806;2024-01-15T07:01:16;65074.81;;;-3.21;100.00
46614;BME280;32338;50.430;6.806;2024-01-15T07:03:43;65080.94;;;-3.15;100.00
46614;BME280;32338;50.430;6.806;2024-01-15T07:06:10;65087.03;;;-3.10;100.00
46614;BME280;32338;50.430;6.806;2024-01-15T07:08:37;65093.50;;;-3.06;100.00
46614;BME280;32338;50.430;6.806;2024-01-15T07:11:03;65097.94;;;-3.02;100.00
46614;BME280;32338;50.430;6.806;2024-01-15T07:13:30;65090.03;;;-3.04;100.00
46614;BME280;32338;50.430;6.806;2024-01-15T07:15:59;65084.25;;;-3.12;100.00
46614;BME280;32338;50.430;6.806;2024-01-15T07:18:25;65084.47;;;-3.10;100.00
46614;BME280;32338;50.430;6.806;2024-01-15T07:20:52;65091.25;;;-3.08;100.00
46614;BME280;32338;50.430;6.806;2024-01-15T07:23:18;65085.59;;;-3.08;100.00
46614;BME280;32338;50.430;6.806;2024-01-15T07:25:45;65085.69;;;-3.13;100.00
46614;BME280;32338;50.430;6.806;2024-01-15T07:28:12;65096.50;;;-3.01;100.00
46614;BME280;32338;50.430;6.806;2024-01-15T07:30:38;65087.59;;;-3.09;100.00
46614;BME280;32338;50.430;6.806;2024-01-15T07:33:06;65099.63;;;-3.00;100.00
46614;BME280;32338;50.430;6.806;2024-01-15T07:35:33;65093.16;;;-3.04;100.00
46614;BME280;32338;50.430;6.806;2024-01-15T07:37:59;65094.28;;;-3.03;100.00
46614;BME280;32338;50.430;6.806;2024-01-15T07:40:26;65098.50;;;-3.01;100.00
46614;BME280;32338;50.430;6.806;2024-01-15T07:42:52;65098.63;;;-2.94;100.00
46614;BME280;32338;50.430;6.806;2024-01-15T07:45:19;65100.28;;;-2.92;100.00
46614;BME280;32338;50.430;6.806;2024-01-15T07:47:46;65102.63;;;-2.95;100.00
46614;BME280;32338;50.430;6.806;2024-01-15T07:50:14;65111.19;;;-2.85;100.00
46614;BME280;32338;50.430;6.806;2024-01-15T07:52:40;65106.16;;;-2.89;100.00
46614;BME280;32338;50.430;6.806;2024-01-15T07:55:07;65116.53;;;-2.82;100.00
46614;BME280;32338;50.430;6.806;2024-01-15T07:57:34;65112.63;;;-2.86;100.00
46614;BME280;32338;50.430;6.806;2024-01-15T08:00:01;65108.41;;;-2.87;100.00
46614;BME280;32338;50.430;6.806;2024-01-15T08:02:29;65112.63;;;-2.86;100.00
46614;BME280;32338;50.430;6.806;2024-01-15T08:04:56;65115.41;;;-2.83;100.00
46614;BME280;32338;50.430;6.806;2024-01-15T08:07:25;65119.63;;;-2.82;100.00
46614;BME280;32338;50.430;6.806;2024-01-15T08:09:52;65113.41;;;-2.83;100.00
46614;BME280;32338;50.430;6.806;2024-01-15T08:12:18;65121.41;;;-2.73;100.00
46614;BME280;32338;50.430;6.806;2024-01-15T08:14:45;65118.41;;;-2.78;100.00
46614;BME280;32338;50.430;6.806;2024-01-15T08:17:12;65127.09;;;-2.72;100.00
46614;BME280;32338;50.430;6.806;2024-01-15T08:19:38;65130.44;;;-2.69;100.00
46614;BME280;32338;50.430;6.806;2024-01-15T08:22:06;65134.91;;;-2.65;100.00
46614;BME280;32338;50.430;6.806;2024-01-15T08:24:34;65136.91;;;-2.66;100.00
46614;BME280;32338;50.430;6.806;2024-01-15T08:27:00;65141.81;;;-2.56;100.00
46614;BME280;32338;50.430;6.806;2024-01-15T08:29:27;65131.78;;;-2.66;100.00
46614;BME280;32338;50.430;6.806;2024-01-15T08:31:54;65132.56;;;-2.63;100.00
46614;BME280;32338;50.430;6.806;2024-01-15T08:34:20;65143.25;;;-2.57;100.00
46614;BME280;32338;50.430;6.806;2024-01-15T08:36:47;65149.72;;;-2.54;100.00
46614;BME280;32338;50.430;6.806;2024-01-15T08:39:13;65159.84;;;-2.49;100.00
46614;BME280;32338;50.430;6.806;2024-01-15T08:41:41;65159.94;;;-2.42;100.00
46614;BME280;32338;50.430;6.806;2024-01-15T08:44:08;65171.06;;;-2.32;100.00
46614;BME280;32338;50.430;6.806;2024-01-15T08:46:34;65182.78;;;-2.21;100.00
46614;BME280;32338;50.430;6.806;2024-01-15T08:49:01;65191.91;;;-2.10;100.00
46614;BME280;32338;50.430;6.806;2024-01-15T08:51:28;65208.19;;;-2.00;100.00
46614;BME280;32338;50.430;6.806;2024-01-15T08:53:55;65196.69;;;-2.08;100.00
46614;BME280;32338;50.430;6.806;2024-01-15T08:56:23;65194.13;;;-2.08;100.00
46614;BME280;32338;50.430;6.806;2024-01-15T08:58:50;65212.06;;;-1.96;100.00
46614;BME280;32338;50.430;6.806;2024-01-15T09:01:17;65203.16;;;-2.04;100.00
46614;BME280;32338;50.430;6.806;2024-01-15T09:03:44;65193.34;;;-2.11;100.00
46614;BME280;32338;50.430;6.806;2024-01-15T09:06:11;65188.91;;;-2.15;100.00
46614;BME280;32338;50.430;6.806;2024-01-15T09:08:38;65188.91;;;-2.15;100.00
46614;BME280;32338;50.430;6.806;2024-01-15T09:11:04;65200.81;;;-2.02;100.00
46614;BME280;32338;50.430;6.806;2024-01-15T09:13:31;65203.16;;;-2.04;100.00
46614;BME280;32338;50.430;6.806;2024-01-15T09:15:59;65211.59;;;-1.89;100.00
46614;BME280;32338;50.430;6.806;2024-01-15T09:18:26;65229.69;;;-1.82;100.00
46614;BME280;32338;50.430;6.806;2024-01-15T09:20:52;65200.25;;;-2.02;100.00
46614;BME280;32338;50.430;6.806;2024-01-15T09:23:19;65205.19;;;-2.05;100.00
46614;BME280;32338;50.430;6.806;2024-01-15T09:25:46;65200.25;;;-2.02;100.00
46614;BME280;32338;50.430;6.806;2024-01-15T09:28:14;65203.03;;;-2.00;100.00
46614;BME280;32338;50.430;6.806;2024-01-15T09:30:40;65211.16;;;-1.94;100.00
46614;BME280;32338;50.430;6.806;2024-01-15T09:33:08;65224.53;;;-1.82;100.00
46614;BME280;32338;50.430;6.806;2024-01-15T09:35:35;65216.06;;;-1.85;100.00
46614;BME280;32338;50.430;6.806;2024-01-15T09:38:02;65229.56;;;-1.77;100.00
46614;BME280;32338;50.430;6.806;2024-01-15T09:40:31;65239.94;;;-1.70;100.00
46614;BME280;32338;50.430;6.806;2024-01-15T09:42:58;65235.69;;;-1.72;100.00
46614;BME280;32338;50.430;6.806;2024-01-15T09:45:25;65239.59;;;-1.68;100.00
46614;BME280;32338;50.430;6.806;2024-01-15T09:47:52;65242.72;;;-1.68;100.00
46614;BME280;32338;50.430;6.806;2024-01-15T09:50:20;65241.94;;;-1.71;100.00
46614;BME280;32338;50.430;6.806;2024-01-15T09:52:47;65232.69;;;-1.77;100.00
46614;BME280;32338;50.430;6.806;2024-01-15T09:55:15;65240.47;;;-1.70;100.00
46614;BME280;32338;50.430;6.806;2024-01-15T09:57:44;65240.00;;;-1.63;100.00
46614;BME280;32338;50.430;6.806;2024-01-15T10:00:11;65236.78;;;-1.71;100.00
46614;BME280;32338;50.430;6.806;2024-01-15T10:02:38;65241.69;;;-1.61;100.00
46614;BME280;32338;50.430;6.806;2024-01-15T10:05:05;65244.81;;;-1.61;100.00
46614;BME280;32338;50.430;6.806;2024-01-15T10:07:35;65245.72;;;-1.63;100.00
46614;BME280;32338;50.430;6.806;2024-01-15T10:10:02;65257.19;;;-1.54;100.00
46614;BME280;32338;50.430;6.806;2024-01-15T10:12:29;65280.25;;;-1.31;100.00
46614;BME280;32338;50.430;6.806;2024-01-15T10:14:56;65293.84;;;-1.16;100.00
46614;BME280;32338;50.430;6.806;2024-01-15T10:17:24;65289.94;;;-1.19;100.00
46614;BME280;32338;50.430;6.806;2024-01-15T10:19:51;65287.16;;;-1.22;100.00
46614;BME280;32338;50.430;6.806;2024-01-15T10:22:17;65293.63;;;-1.18;100.00
46614;BME280;32338;50.430;6.806;2024-01-15T10:24:45;65304.78;;;-1.08;100.00
46614;BME280;32338;50.430;6.806;2024-01-15T10:27:12;65319.28;;;-0.94;100.00
46614;BME280;32338;50.430;6.806;2024-01-15T10:29:41;65318.50;;;-0.98;100.00
46614;BME280;32338;50.430;6.806;2024-01-15T10:32:08;65276.34;;;-1.34;100.00
46614;BME280;32338;50.430;6.806;2024-01-15T10:34:37;65291.75;;;-1.22;100.00
46614;BME280;32338;50.430;6.806;2024-01-15T10:37:06;65310.13;;;-1.05;100.00
46614;BME280;32338;50.430;6.806;2024-01-15T10:39:33;65320.41;;;-0.93;100.00
46614;BME280;32338;50.430;6.806;2024-01-15T10:42:01;65335.78;;;-0.82;100.00
46614;BME280;32338;50.430;6.806;2024-01-15T10:44:28;65352.53;;;-0.66;100.00
46614;BME280;32338;50.430;6.806;2024-01-15T10:46:56;65369.47;;;-0.48;100.00
46614;BME280;32338;50.430;6.806;2024-01-15T10:49:23;65368.34;;;-0.49;100.00
46614;BME280;32338;50.430;6.806;2024-01-15T10:51:52;65383.97;;;-0.35;100.00
46614;BME280;32338;50.430;6.806;2024-01-15T10:54:20;65361.31;;;-0.53;100.00
46614;BME280;32338;50.430;6.806;2024-01-15T10:56:49;65328.97;;;-0.83;100.00
46614;BME280;32338;50.430;6.806;2024-01-15T10:59:19;65344.16;;;-0.74;100.00
46614;BME280;32338;50.430;6.806;2024-01-15T11:01:46;65341.72;;;-0.78;100.00
46614;BME280;32338;50.430;6.806;2024-01-15T11:04:14;65316.50;;;-0.97;100.00
46614;BME280;32338;50.430;6.806;2024-01-15T11:06:42;65316.91;;;-0.92;100.00
46614;BME280;32338;50.430;6.806;2024-01-15T11:09:09;65322.06;;;-0.92;100.00
46614;BME280;32338;50.430;6.806;2024-01-15T11:11:40;65355.19;;;-0.59;100.00
46614;BME280;32338;50.430;6.806;2024-01-15T11:14:07;65371.50;;;-0.48;100.00
46614;BME280;32338;50.430;6.806;2024-01-15T11:16:57;65344.16;;;-0.74;100.00
46614;BME280;32338;50.430;6.806;2024-01-15T11:19:24;65378.72;;;-0.42;100.00
46614;BME280;32338;50.430;6.806;2024-01-15T11:21:51;65377.28;;;-0.41;100.00
46614;BME280;32338;50.430;6.806;2024-01-15T11:24:37;65385.97;;;-0.35;100.00
46614;BME280;32338;50.430;6.806;2024-01-15T11:27:05;65355.75;;;-0.58;100.00
46614;BME280;32338;50.430;6.806;2024-01-15T11:29:34;65362.97;;;-0.52;100.00
46614;BME280;32338;50.430;6.806;2024-01-15T11:32:03;65341.03;;;-0.74;100.00
46614;BME280;32338;50.430;6.806;2024-01-15T11:35:06;65340.03;;;-0.80;100.00
46614;BME280;32338;50.430;6.806;2024-01-15T11:37:56;65339.56;;;-0.73;100.00
46614;BME280;32338;50.430;6.806;2024-01-15T11:40:36;65342.47;;;-0.75;100.00
46614;BME280;32338;50.430;6.806;2024-01-15T11:43:04;65337.47;;;-0.80;100.00
46614;BME280;32338;50.430;6.806;2024-01-15T11:45:31;65328.22;;;-0.86;100.00
46614;BME280;32338;50.430;6.806;2024-01-15T11:48:15;65335.22;;;-0.82;100.00
46614;BME280;32338;50.430;6.806;2024-01-15T11:50:42;65332.53;;;-0.77;100.00
46614;BME280;32338;50.430;6.806;2024-01-15T11:53:27;65354.19;;;-0.64;100.00
46614;BME280;32338;50.430;6.806;2024-01-15T11:55:58;65363.88;;;-0.53;100.00
46614;BME280;32338;50.430;6.806;2024-01-15T11:58:24;65356.06;;;-0.60;100.00
46614;BME280;32338;50.430;6.806;2024-01-15T12:00:52;65379.16;;;-0.37;100.00
46614;BME280;32338;50.430;6.806;2024-01-15T12:03:21;65389.22;;;-0.27;100.00
46614;BME280;32338;50.430;6.806;2024-01-15T12:05:48;65380.63;;;-0.38;100.00
46614;BME280;32338;50.430;6.806;2024-01-15T12:08:20;65373.59;;;-0.42;100.00
46614;BME280;32338;50.430;6.806;2024-01-15T12:10:47;65370.91;;;-0.49;100.00
46614;BME280;32338;50.430;6.806;2024-01-15T12:13:15;65354.63;;;-0.59;100.00
46614;BME280;32338;50.430;6.806;2024-01-15T12:15:43;65342.91;;;-0.70;100.00
46614;BME280;32338;50.430;6.806;2024-01-15T12:18:11;65346.03;;;-0.70;100.00
46614;BME280;32338;50.430;6.806;2024-01-15T12:20:40;65360.34;;;-0.59;100.00
46614;BME280;32338;50.430;6.806;2024-01-15T12:23:07;65358.66;;;-0.60;100.00
46614;BME280;32338;50.430;6.806;2024-01-15T12:25:35;65356.06;;;-0.60;100.00
46614;BME280;32338;50.430;6.806;2024-01-15T12:28:03;65343.81;;;-0.72;100.00
46614;BME280;32338;50.430;6.806;2024-01-15T12:30:30;65359.66;;;-0.55;100.00
46614;BME280;32338;50.430;6.806;2024-01-15T12:32:58;65318.03;;;-0.91;100.00
46614;BME280;32338;50.430;6.806;2024-01-15T12:35:24;65312.25;;;-0.99;100.00
46614;BME280;32338;50.430;6.806;2024-01-15T12:37:54;65336.56;;;-0.78;100.00
46614;BME280;32338;50.430;6.806;2024-01-15T12:40:21;65378.41;;;-0.40;100.00
46614;BME280;32338;50.430;6.806;2024-01-15T12:42:48;65410.75;;;-0.10;100.00
46614;BME280;32338;50.430;6.806;2024-01-15T12:45:15;65400.16;;;-0.20;100.00
46614;BME280;32338;50.430;6.806;2024-01-15T12:47:42;65398.13;;;-0.19;100.00
46614;BME280;32338;50.430;6.806;2024-01-15T12:50:10;65409.06;;;-0.11;100.00